sensor_id;sensor_type;location;lat;lon;timestamp;pressure;altitude;pressure_sealevel;temperature;humidity
55656;BME280;41530;52.382;5.270;2023-04-21T00:00:54;101889.66;;;18.02;42.67
55656;BME280;41530;52.382;5.270;2023-04-21T00:03:22;101878.28;;;18.00;42.65
55656;BME280;41530;52.382;5.270;2023-04-21T00:05:56;101875.63;;;18.00;42.80
55656;BME280;41530;52.382;5.270;2023-04-21T00:08:26;101872.97;;;18.00;42.71
55656;BME280;41530;52.382;5.270;2023-04-21T00:10:53;101858.25;;;17.96;42.72
55656;BME280;41530;52.382;5.270;2023-04-21T00:13:20;101853.88;;;17.95;42.71
55656;BME280;41530;52.382;5.270;2023-04-21T00:15:46;101852.78;;;17.97;42.84
55656;BME280;41530;52.382;5.270;2023-04-21T00:18:13;101845.91;;;17.95;42.87
55656;BME280;41530;52.382;5.270;2023-04-21T00:20:40;101844.94;;;17.96;42.85
55656;BME280;41530;52.382;5.270;2023-04-21T00:23:08;101841.53;;;17.94;42.86
55656;BME280;41530;52.382;5.270;2023-04-21T00:25:36;101830.91;;;17.94;42.71
55656;BME280;41530;52.382;5.270;2023-04-21T00:28:02;101835.97;;;17.97;42.75
55656;BME280;41530;52.382;5.270;2023-04-21T00:30:29;101830.91;;;17.94;42.98
55656;BME280;41530;52.382;5.270;2023-04-21T00:32:56;101804.47;;;17.81;42.88
55656;BME280;41530;52.382;5.270;2023-04-21T00:35:22;101822.31;;;17.90;42.98
55656;BME280;41530;52.382;5.270;2023-04-21T00:37:49;101822.31;;;17.90;43.06
55656;BME280;41530;52.382;5.270;2023-04-21T00:40:15;101821.47;;;17.90;43.00
55656;BME280;41530;52.382;5.270;2023-04-21T00:42:42;101818.81;;;17.90;42.90
55656;BME280;41530;52.382;5.270;2023-04-21T00:45:09;101820.75;;;17.88;43.00
55656;BME280;41530;52.382;5.270;2023-04-21T00:47:35;101822.44;;;17.89;42.86
55656;BME280;41530;52.382;5.270;2023-04-21T00:50:02;101813.63;;;17.88;42.88
55656;BME280;41530;52.382;5.270;2023-04-21T00:52:29;101807.44;;;17.88;43.07
55656;BME280;41530;52.382;5.270;2023-04-21T00:54:57;101807.56;;;17.86;43.24
55656;BME280;41530;52.382;5.270;2023-04-21T00:57:26;101806.59;;;17.87;43.28
55656;BME280;41530;52.382;5.270;2023-04-21T00:59:54;101796.91;;;17.86;43.25
55656;BME280;41530;52.382;5.270;2023-04-21T01:02:21;101746.28;;;17.56;43.08
55656;BME280;41530;52.382;5.270;2023-04-21T01:08:06;101737.84;;;17.51;43.20
55656;BME280;41530;52.382;5.270;2023-04-21T01:10:47;101746.66;;;17.51;43.28
55656;BME280;41530;52.382;5.270;2023-04-21T01:13:30;101758.09;;;17.63;43.37
55656;BME280;41530;52.382;5.270;2023-04-21T01:16:03;101752.91;;;17.61;43.46
55656;BME280;41530;52.382;5.270;2023-04-21T01:18:56;101731.69;;;17.50;43.37
55656;BME280;41530;52.382;5.270;2023-04-21T01:21:47;101753.66;;;17.63;43.44
55656;BME280;41530;52.382;5.270;2023-04-21T01:24:47;101756.66;;;17.70;43.81
55656;BME280;41530;52.382;5.270;2023-04-21T01:27:39;101736.94;;;17.61;43.51
55656;BME280;41530;52.382;5.270;2023-04-21T01:30:15;101752.16;;;17.70;43.47
55656;BME280;41530;52.382;5.270;2023-04-21T01:32:44;101774.09;;;17.84;43.50
55656;BME280;41530;52.382;5.270;2023-04-21T01:35:10;101766.97;;;17.84;43.54
55656;BME280;41530;52.382;5.270;2023-04-21T01:37:37;101768.78;;;17.84;43.67
55656;BME280;41530;52.382;5.270;2023-04-21T01:40:06;101765.09;;;17.85;43.60
55656;BME280;41530;52.382;5.270;2023-04-21T01:42:37;101777.59;;;17.84;43.61
55656;BME280;41530;52.382;5.270;2023-04-21T01:45:04;101769.47;;;17.86;43.44
55656;BME280;41530;52.382;5.270;2023-04-21T01:47:31;101768.63;;;17.85;43.64
55656;BME280;41530;52.382;5.270;2023-04-21T01:49:58;101766.97;;;17.84;43.62
55656;BME280;41530;52.382;5.270;2023-04-21T01:52:25;101774.78;;;17.86;43.65
55656;BME280;41530;52.382;5.270;2023-04-21T01:54:51;101766.78;;;17.86;43.79
55656;BME280;41530;52.382;5.270;2023-04-21T01:57:18;101770.44;;;17.85;43.65
55656;BME280;41530;52.382;5.270;2023-04-21T01:59:46;101757.13;;;17.85;43.63
55656;BME280;41530;52.382;5.270;2023-04-21T02:02:13;101756.31;;;17.84;43.69
55656;BME280;41530;52.382;5.270;2023-04-21T02:04:40;101741.44;;;17.82;43.69
55656;BME280;41530;52.382;5.270;2023-04-21T02:07:07;101735.13;;;17.83;43.74
55656;BME280;41530;52.382;5.270;2023-04-21T02:09:33;101735.13;;;17.83;43.79
55656;BME280;41530;52.382;5.270;2023-04-21T02:12:00;101737.94;;;17.81;43.83
55656;BME280;41530;52.382;5.270;2023-04-21T02:14:27;101742.41;;;17.80;44.00
55656;BME280;41530;52.382;5.270;2023-04-21T02:16:54;101744.94;;;17.82;43.93
55656;BME280;41530;52.382;5.270;2023-04-21T02:19:21;101733.44;;;17.82;44.07
55656;BME280;41530;52.382;5.270;2023-04-21T02:27:12;101733.59;;;17.80;44.08
55656;BME280;41530;52.382;5.270;2023-04-21T02:29:38;101718.59;;;17.79;44.01
55656;BME280;41530;52.382;5.270;2023-04-21T02:32:05;101728.25;;;17.80;44.07
55656;BME280;41530;52.382;5.270;2023-04-21T02:34:50;101727.28;;;17.81;44.10
55656;BME280;41530;52.382;5.270;2023-04-21T02:37:17;101727.41;;;17.79;43.97
55656;BME280;41530;52.382;5.270;2023-04-21T02:39:43;101731.75;;;17.80;44.11
55656;BME280;41530;52.382;5.270;2023-04-21T02:42:10;101718.59;;;17.79;43.96
55656;BME280;41530;52.382;5.270;2023-04-21T02:44:37;101724.75;;;17.79;44.03
55656;BME280;41530;52.382;5.270;2023-04-21T02:47:03;101722.09;;;17.79;44.03
55656;BME280;41530;52.382;5.270;2023-04-21T02:49:30;101725.59;;;17.80;44.07
55656;BME280;41530;52.382;5.270;2023-04-21T02:51:57;101716.75;;;17.79;44.33
55656;BME280;41530;52.382;5.270;2023-04-21T02:54:23;101729.94;;;17.81;44.10
55656;BME280;41530;52.382;5.270;2023-04-21T02:56:50;101729.94;;;17.81;44.08
55656;BME280;41530;52.382;5.270;2023-04-21T02:59:17;101724.63;;;17.81;44.11
55656;BME280;41530;52.382;5.270;2023-04-21T03:01:44;101724.63;;;17.81;44.10
55656;BME280;41530;52.382;5.270;2023-04-21T03:04:11;101738.78;;;17.82;44.13
55656;BME280;41530;52.382;5.270;2023-04-21T03:06:38;101732.59;;;17.81;44.03
55656;BME280;41530;52.382;5.270;2023-04-21T03:09:05;101728.25;;;17.80;44.07
55656;BME280;41530;52.382;5.270;2023-04-21T03:11:31;101723.78;;;17.80;44.19
55656;BME280;41530;52.382;5.270;2023-04-21T03:13:58;101728.25;;;17.80;43.93
55656;BME280;41530;52.382;5.270;2023-04-21T03:16:25;101734.44;;;17.80;44.18
55656;BME280;41530;52.382;5.270;2023-04-21T03:18:51;101738.91;;;17.80;44.56
55656;BME280;41530;52.382;5.270;2023-04-21T03:21:18;101742.41;;;17.80;44.31
55656;BME280;41530;52.382;5.270;2023-04-21T03:23:45;101749.56;;;17.80;44.40
55656;BME280;41530;52.382;5.270;2023-04-21T03:26:12;101755.84;;;17.79;44.07
55656;BME280;41530;52.382;5.270;2023-04-21T03:28:38;101745.06;;;17.80;44.13
55656;BME280;41530;52.382;5.270;2023-04-21T03:31:05;101732.88;;;17.78;44.09
55656;BME280;41530;52.382;5.270;2023-04-21T03:33:31;101740.00;;;17.77;44.34
55656;BME280;41530;52.382;5.270;2023-04-21T03:35:58;101742.53;;;17.79;44.17
55656;BME280;41530;52.382;5.270;2023-04-21T03:38:27;101740.84;;;17.78;44.24
55656;BME280;41530;52.382;5.270;2023-04-21T03:40:54;101732.16;;;17.76;44.21
55656;BME280;41530;52.382;5.270;2023-04-21T03:43:20;101728.50;;;17.77;44.29
55656;BME280;41530;52.382;5.270;2023-04-21T03:45:47;101717.88;;;17.77;44.32
55656;BME280;41530;52.382;5.270;2023-04-21T03:48:14;101716.19;;;17.76;44.40
55656;BME280;41530;52.382;5.270;2023-04-21T03:50:40;101710.84;;;17.76;44.49
55656;BME280;41530;52.382;5.270;2023-04-21T03:53:07;101700.34;;;17.74;44.37
55656;BME280;41530;52.382;5.270;2023-04-21T03:55:33;101710.84;;;17.76;44.41
55656;BME280;41530;52.382;5.270;2023-04-21T03:58:00;101712.53;;;17.77;44.39
55656;BME280;41530;52.382;5.270;2023-04-21T04:00:27;101710.84;;;17.76;44.45
55656;BME280;41530;52.382;5.270;2023-04-21T04:02:53;101705.53;;;17.76;44.52
55656;BME280;41530;52.382;5.270;2023-04-21T04:05:20;101709.16;;;17.75;44.52
55656;BME280;41530;52.382;5.270;2023-04-21T04:07:47;101708.31;;;17.74;44.35
55656;BME280;41530;52.382;5.270;2023-04-21T04:10:14;101703.84;;;17.75;44.48
55656;BME280;41530;52.382;5.270;2023-04-21T04:12:40;101706.50;;;17.75;44.36
55656;BME280;41530;52.382;5.270;2023-04-21T04:15:07;101705.66;;;17.74;44.63
55656;BME280;41530;52.382;5.270;2023-04-21T04:17:34;101695.00;;;17.74;44.60
55656;BME280;41530;52.382;5.270;2023-04-21T04:20:01;101693.31;;;17.73;44.65
55656;BME280;41530;52.382;5.270;2023-04-21T04:22:30;101706.63;;;17.73;44.50
55656;BME280;41530;52.382;5.270;2023-04-21T04:24:56;101706.63;;;17.73;44.58
55656;BME280;41530;52.382;5.270;2023-04-21T04:27:26;101706.63;;;17.73;44.72
55656;BME280;41530;52.382;5.270;2023-04-21T04:29:53;101708.44;;;17.73;44.54
55656;BME280;41530;52.382;5.270;2023-04-21T04:32:20;101711.13;;;17.73;44.68
55656;BME280;41530;52.382;5.270;2023-04-21T04:34:47;101703.97;;;17.73;44.76
55656;BME280;41530;52.382;5.270;2023-04-21T04:37:13;101705.78;;;17.73;44.33
55656;BME280;41530;52.382;5.270;2023-04-21T04:39:40;101695.16;;;17.73;44.69
55656;BME280;41530;52.382;5.270;2023-04-21T04:42:07;101689.13;;;17.71;44.56
55656;BME280;41530;52.382;5.270;2023-04-21T04:44:37;101681.16;;;17.71;44.72
55656;BME280;41530;52.382;5.270;2023-04-21T04:47:03;101681.97;;;17.71;44.68
55656;BME280;41530;52.382;5.270;2023-04-21T04:49:30;101687.28;;;17.71;44.77
55656;BME280;41530;52.382;5.270;2023-04-21T04:51:57;101699.63;;;17.72;44.54
55656;BME280;41530;52.382;5.270;2023-04-21T04:54:25;101700.59;;;17.71;44.67
55656;BME280;41530;52.382;5.270;2023-04-21T04:56:51;101705.91;;;17.71;44.66
55656;BME280;41530;52.382;5.270;2023-04-21T04:59:18;101723.72;;;17.71;44.67
55656;BME280;41530;52.382;5.270;2023-04-21T05:01:45;101716.72;;;17.70;44.69
55656;BME280;41530;52.382;5.270;2023-04-21T05:04:11;101716.56;;;17.71;44.70
55656;BME280;41530;52.382;5.270;2023-04-21T05:06:42;101712.25;;;17.70;44.60
55656;BME280;41530;52.382;5.270;2023-04-21T05:09:08;101704.25;;;17.70;44.78
55656;BME280;41530;52.382;5.270;2023-04-21T05:11:35;101704.25;;;17.70;44.69
55656;BME280;41530;52.382;5.270;2023-04-21T05:14:02;101699.78;;;17.71;44.60
55656;BME280;41530;52.382;5.270;2023-04-21T05:16:29;101706.94;;;17.70;44.49
55656;BME280;41530;52.382;5.270;2023-04-21T05:19:00;101709.44;;;17.72;44.81
55656;BME280;41530;52.382;5.270;2023-04-21T05:21:27;101710.44;;;17.71;44.65
55656;BME280;41530;52.382;5.270;2023-04-21T05:23:54;101682.13;;;17.70;44.89
55656;BME280;41530;52.382;5.270;2023-04-21T05:26:22;101705.22;;;17.69;44.78
55656;BME280;41530;52.382;5.270;2023-04-21T05:28:49;101713.09;;;17.71;45.00
55656;BME280;41530;52.382;5.270;2023-04-21T05:31:16;101716.56;;;17.71;45.06
55656;BME280;41530;52.382;5.270;2023-04-21T05:33:42;101701.44;;;17.72;45.17
55656;BME280;41530;52.382;5.270;2023-04-21T05:36:10;101705.91;;;17.71;45.23
55656;BME280;41530;52.382;5.270;2023-04-21T05:38:37;101704.94;;;17.72;45.16
55656;BME280;41530;52.382;5.270;2023-04-21T05:41:03;101705.09;;;17.71;44.91
55656;BME280;41530;52.382;5.270;2023-04-21T05:43:30;101705.91;;;17.71;44.90
55656;BME280;41530;52.382;5.270;2023-04-21T05:46:00;101704.09;;;17.72;45.06
55656;BME280;41530;52.382;5.270;2023-04-21T05:48:27;101705.38;;;17.68;44.82
55656;BME280;41530;52.382;5.270;2023-04-21T05:50:56;101714.91;;;17.70;44.77
55656;BME280;41530;52.382;5.270;2023-04-21T05:53:22;101710.44;;;17.71;44.60
55656;BME280;41530;52.382;5.270;2023-04-21T05:55:49;101706.75;;;17.72;45.01
55656;BME280;41530;52.382;5.270;2023-04-21T05:58:16;101703.25;;;17.71;45.24
55656;BME280;41530;52.382;5.270;2023-04-21T06:00:43;101715.59;;;17.72;45.48
55656;BME280;41530;52.382;5.270;2023-04-21T06:03:14;101715.59;;;17.72;45.43
55656;BME280;41530;52.382;5.270;2023-04-21T06:05:41;101713.78;;;17.73;45.66
55656;BME280;41530;52.382;5.270;2023-04-21T06:08:07;101725.25;;;17.73;45.44
55656;BME280;41530;52.382;5.270;2023-04-21T06:10:34;101717.41;;;17.72;45.49
55656;BME280;41530;52.382;5.270;2023-04-21T06:13:01;101719.94;;;17.73;45.34
55656;BME280;41530;52.382;5.270;2023-04-21T06:15:28;101711.97;;;17.73;45.63
55656;BME280;41530;52.382;5.270;2023-04-21T06:17:54;101706.63;;;17.73;45.53
55656;BME280;41530;52.382;5.270;2023-04-21T06:20:21;101708.44;;;17.73;45.87
55656;BME280;41530;52.382;5.270;2023-04-21T06:22:47;101707.47;;;17.74;45.87
55656;BME280;41530;52.382;5.270;2023-04-21T06:25:14;101709.28;;;17.73;45.82
55656;BME280;41530;52.382;5.270;2023-04-21T06:27:41;101718.13;;;17.74;45.97
55656;BME280;41530;52.382;5.270;2023-04-21T06:30:07;101710.13;;;17.74;45.90
55656;BME280;41530;52.382;5.270;2023-04-21T06:32:34;101706.63;;;17.73;45.68
55656;BME280;41530;52.382;5.270;2023-04-21T06:35:01;101703.25;;;17.71;45.76
55656;BME280;41530;52.382;5.270;2023-04-21T06:37:28;101703.25;;;17.71;46.00
55656;BME280;41530;52.382;5.270;2023-04-21T06:39:54;101697.94;;;17.71;46.34
55656;BME280;41530;52.382;5.270;2023-04-21T06:42:21;101700.59;;;17.71;45.74
55656;BME280;41530;52.382;5.270;2023-04-21T06:44:48;101702.28;;;17.72;45.89
55656;BME280;41530;52.382;5.270;2023-04-21T06:47:16;101691.63;;;17.72;46.17
55656;BME280;41530;52.382;5.270;2023-04-21T06:49:43;101712.09;;;17.72;46.24
55656;BME280;41530;52.382;5.270;2023-04-21T06:52:09;101717.56;;;17.70;46.23
55656;BME280;41530;52.382;5.270;2023-04-21T06:54:36;101705.91;;;17.71;45.97
55656;BME280;41530;52.382;5.270;2023-04-21T06:57:03;101698.94;;;17.70;46.12
55656;BME280;41530;52.382;5.270;2023-04-21T06:59:30;101704.41;;;17.69;46.30
55656;BME280;41530;52.382;5.270;2023-04-21T07:01:56;101698.22;;;17.68;46.21
55656;BME280;41530;52.382;5.270;2023-04-21T07:04:23;101696.53;;;17.67;46.19
55656;BME280;41530;52.382;5.270;2023-04-21T07:06:55;101704.53;;;17.67;46.51
55656;BME280;41530;52.382;5.270;2023-04-21T07:09:22;101702.69;;;17.68;46.50
55656;BME280;41530;52.382;5.270;2023-04-21T07:11:48;101699.06;;;17.69;46.32
55656;BME280;41530;52.382;5.270;2023-04-21T07:14:15;101684.06;;;17.68;46.25
55656;BME280;41530;52.382;5.270;2023-04-21T07:16:41;101694.72;;;17.68;46.33
55656;BME280;41530;52.382;5.270;2023-04-21T07:19:08;101692.91;;;17.68;46.31
55656;BME280;41530;52.382;5.270;2023-04-21T07:21:35;101703.53;;;17.68;46.33
55656;BME280;41530;52.382;5.270;2023-04-21T07:24:02;101702.69;;;17.68;46.62
55656;BME280;41530;52.382;5.270;2023-04-21T07:26:29;101692.19;;;17.66;46.43
55656;BME280;41530;52.382;5.270;2023-04-21T07:28:56;101687.00;;;17.65;46.44
55656;BME280;41530;52.382;5.270;2023-04-21T07:31:24;101699.31;;;17.66;46.25
55656;BME280;41530;52.382;5.270;2023-04-21T07:33:51;101695.94;;;17.64;46.36
55656;BME280;41530;52.382;5.270;2023-04-21T07:36:17;101698.59;;;17.64;46.64
55656;BME280;41530;52.382;5.270;2023-04-21T07:38:44;101698.47;;;17.65;46.53
55656;BME280;41530;52.382;5.270;2023-04-21T07:41:11;101703.53;;;17.68;46.15
55656;BME280;41530;52.382;5.270;2023-04-21T07:43:39;101702.44;;;17.71;46.12
55656;BME280;41530;52.382;5.270;2023-04-21T07:46:06;101693.91;;;17.77;46.18
55656;BME280;41530;52.382;5.270;2023-04-21T07:48:33;101697.06;;;17.92;46.01
55656;BME280;41530;52.382;5.270;2023-04-21T07:50:59;101693.19;;;18.05;45.61
55656;BME280;41530;52.382;5.270;2023-04-21T07:53:28;101702.19;;;18.14;45.55
55656;BME280;41530;52.382;5.270;2023-04-21T07:55:56;101702.06;;;18.15;45.67
55656;BME280;41530;52.382;5.270;2023-04-21T07:58:22;101703.03;;;18.14;46.08
55656;BME280;41530;52.382;5.270;2023-04-21T08:00:49;101700.50;;;18.13;45.95
55656;BME280;41530;52.382;5.270;2023-04-21T08:03:16;101697.13;;;18.11;46.27
55656;BME280;41530;52.382;5.270;2023-04-21T08:05:43;101706.25;;;18.08;46.30
55656;BME280;41530;52.382;5.270;2023-04-21T08:08:10;101704.69;;;18.06;46.53
55656;BME280;41530;52.382;5.270;2023-04-21T08:10:37;101702.03;;;18.06;46.60
55656;BME280;41530;52.382;5.270;2023-04-21T08:13:04;101700.47;;;18.03;46.49
55656;BME280;41530;52.382;5.270;2023-04-21T08:15:32;101697.94;;;18.02;46.65
55656;BME280;41530;52.382;5.270;2023-04-21T08:18:00;101707.03;;;17.99;47.14
55656;BME280;41530;52.382;5.270;2023-04-21T08:20:26;101708.00;;;17.98;47.03
55656;BME280;41530;52.382;5.270;2023-04-21T08:22:53;101710.84;;;17.97;47.17
55656;BME280;41530;52.382;5.270;2023-04-21T08:25:20;101694.16;;;17.95;47.13
55656;BME280;41530;52.382;5.270;2023-04-21T08:27:47;101701.41;;;17.93;46.99
55656;BME280;41530;52.382;5.270;2023-04-21T08:30:14;101702.41;;;17.92;47.21
55656;BME280;41530;52.382;5.270;2023-04-21T08:32:41;101710.38;;;17.92;47.10
55656;BME280;41530;52.382;5.270;2023-04-21T08:35:08;101700.25;;;17.86;47.24
55656;BME280;41530;52.382;5.270;2023-04-21T08:37:36;101705.31;;;17.89;46.90
55656;BME280;41530;52.382;5.270;2023-04-21T08:40:04;101703.75;;;17.86;47.22
55656;BME280;41530;52.382;5.270;2023-04-21T08:42:32;101700.25;;;17.86;46.99
55656;BME280;41530;52.382;5.270;2023-04-21T08:44:59;101709.06;;;17.86;46.92
55656;BME280;41530;52.382;5.270;2023-04-21T08:47:26;101711.88;;;17.85;46.79
55656;BME280;41530;52.382;5.270;2023-04-21T08:49:55;101706.53;;;17.85;47.45
55656;BME280;41530;52.382;5.270;2023-04-21T08:52:22;101704.88;;;17.84;46.92
55656;BME280;41530;52.382;5.270;2023-04-21T08:54:49;101703.88;;;17.85;46.94
55656;BME280;41530;52.382;5.270;2023-04-21T08:57:18;101705.03;;;17.82;46.70
55656;BME280;41530;52.382;5.270;2023-04-21T08:59:45;101716.38;;;17.84;46.92
55656;BME280;41530;52.382;5.270;2023-04-21T09:02:15;101708.41;;;17.84;47.13
55656;BME280;41530;52.382;5.270;2023-04-21T09:04:44;101704.88;;;17.84;47.13
55656;BME280;41530;52.382;5.270;2023-04-21T09:07:12;101716.38;;;17.84;46.94
55656;BME280;41530;52.382;5.270;2023-04-21T09:09:55;101710.91;;;17.86;46.96
55656;BME280;41530;52.382;5.270;2023-04-21T09:12:23;101711.88;;;17.85;46.96
55656;BME280;41530;52.382;5.270;2023-04-21T09:14:49;101708.22;;;17.86;47.17
55656;BME280;41530;52.382;5.270;2023-04-21T09:17:17;101715.38;;;17.85;47.20
55656;BME280;41530;52.382;5.270;2023-04-21T09:19:44;101709.94;;;17.87;47.24
55656;BME280;41530;52.382;5.270;2023-04-21T09:22:15;101709.94;;;17.87;47.27
55656;BME280;41530;52.382;5.270;2023-04-21T09:24:48;101714.53;;;17.85;47.32
55656;BME280;41530;52.382;5.270;2023-04-21T09:27:22;101709.94;;;17.87;47.19
55656;BME280;41530;52.382;5.270;2023-04-21T09:29:49;101695.78;;;17.86;46.91
55656;BME280;41530;52.382;5.270;2023-04-21T09:32:16;101695.63;;;17.88;47.04
55656;BME280;41530;52.382;5.270;2023-04-21T09:34:44;101697.47;;;17.87;47.00
55656;BME280;41530;52.382;5.270;2023-04-21T09:37:12;101700.00;;;17.89;47.01
55656;BME280;41530;52.382;5.270;2023-04-21T09:39:46;101706.16;;;17.89;47.11
55656;BME280;41530;52.382;5.270;2023-04-21T09:42:33;101705.31;;;17.89;47.29
55656;BME280;41530;52.382;5.270;2023-04-21T09:45:06;101703.63;;;17.88;46.89
55656;BME280;41530;52.382;5.270;2023-04-21T09:47:56;101702.66;;;17.89;46.89
55656;BME280;41530;52.382;5.270;2023-04-21T09:50:25;101699.00;;;17.90;47.05
55656;BME280;41530;52.382;5.270;2023-04-21T09:53:14;101696.34;;;17.90;47.20
55656;BME280;41530;52.382;5.270;2023-04-21T09:55:42;101693.56;;;17.91;46.79
55656;BME280;41530;52.382;5.270;2023-04-21T09:58:12;101689.09;;;17.92;46.85
55656;BME280;41530;52.382;5.270;2023-04-21T10:00:41;101690.91;;;17.91;47.02
55656;BME280;41530;52.382;5.270;2023-04-21T10:03:09;101695.13;;;17.94;46.64
55656;BME280;41530;52.382;5.270;2023-04-21T10:05:37;101690.63;;;17.94;46.80
55656;BME280;41530;52.382;5.270;2023-04-21T10:08:07;101686.28;;;17.93;46.68
55656;BME280;41530;52.382;5.270;2023-04-21T10:10:37;101695.84;;;17.96;47.25
55656;BME280;41530;52.382;5.270;2023-04-21T10:13:04;101683.50;;;17.95;47.13
55656;BME280;41530;52.382;5.270;2023-04-21T10:15:38;101685.31;;;17.94;47.44
55656;BME280;41530;52.382;5.270;2023-04-21T10:18:23;101681.81;;;17.94;47.47
55656;BME280;41530;52.382;5.270;2023-04-21T10:26:10;101672.56;;;17.98;47.25
55656;BME280;41530;52.382;5.270;2023-04-21T10:28:39;101682.22;;;17.99;46.86
55656;BME280;41530;52.382;5.270;2023-04-21T10:31:36;101689.38;;;17.98;47.65
55656;BME280;41530;52.382;5.270;2023-04-21T10:39:37;101678.03;;;17.96;47.42
55656;BME280;41530;52.382;5.270;2023-04-21T10:42:19;101669.91;;;17.98;47.38
55656;BME280;41530;52.382;5.270;2023-04-21T10:47:28;101661.91;;;17.98;47.31
55656;BME280;41530;52.382;5.270;2023-04-21T10:49:56;101668.66;;;18.02;46.61
55656;BME280;41530;52.382;5.270;2023-04-21T10:52:31;101661.50;;;18.02;47.36
55656;BME280;41530;52.382;5.270;2023-04-21T10:57:32;101664.75;;;18.06;47.51
55656;BME280;41530;52.382;5.270;2023-04-21T10:59:59;101657.75;;;18.05;47.17
55656;BME280;41530;52.382;5.270;2023-04-21T11:02:26;101655.78;;;18.07;47.32
55656;BME280;41530;52.382;5.270;2023-04-21T11:04:53;101651.31;;;18.07;47.31
55656;BME280;41530;52.382;5.270;2023-04-21T11:07:22;101653.00;;;18.08;47.28
55656;BME280;41530;52.382;5.270;2023-04-21T11:10:09;101640.53;;;18.09;47.74
55656;BME280;41530;52.382;5.270;2023-04-21T11:12:38;101630.72;;;18.09;47.56
55656;BME280;41530;52.382;5.270;2023-04-21T11:15:07;101634.22;;;18.10;47.53
55656;BME280;41530;52.382;5.270;2023-04-21T11:17:35;101629.88;;;18.09;47.50
55656;BME280;41530;52.382;5.270;2023-04-21T11:20:04;101623.56;;;18.10;47.76
55656;BME280;41530;52.382;5.270;2023-04-21T11:22:32;101629.75;;;18.10;47.62
55656;BME280;41530;52.382;5.270;2023-04-21T11:24:59;101626.06;;;18.11;47.42
55656;BME280;41530;52.382;5.270;2023-04-21T11:27:27;101618.94;;;18.12;47.35
55656;BME280;41530;52.382;5.270;2023-04-21T11:29:54;101607.28;;;18.13;47.27
55656;BME280;41530;52.382;5.270;2023-04-21T11:32:22;101609.81;;;18.14;47.46
55656;BME280;41530;52.382;5.270;2023-04-21T11:34:49;101607.88;;;18.16;47.48
55656;BME280;41530;52.382;5.270;2023-04-21T11:37:23;101609.56;;;18.17;47.76
55656;BME280;41530;52.382;5.270;2023-04-21T11:39:58;101605.78;;;18.20;47.74
55656;BME280;41530;52.382;5.270;2023-04-21T11:42:26;101602.28;;;18.20;47.41
55656;BME280;41530;52.382;5.270;2023-04-21T11:44:54;101602.16;;;18.21;47.42
55656;BME280;41530;52.382;5.270;2023-04-21T11:47:23;101610.00;;;18.23;47.27
55656;BME280;41530;52.382;5.270;2023-04-21T11:50:00;101605.53;;;18.23;47.29
55656;BME280;41530;52.382;5.270;2023-04-21T11:53:23;101537.59;;;17.79;47.34
55656;BME280;41530;52.382;5.270;2023-04-21T11:55:40;101553.06;;;17.95;47.46
55656;BME280;41530;52.382;5.270;2023-04-21T11:58:56;101578.19;;;18.21;47.77
55656;BME280;41530;52.382;5.270;2023-04-21T12:01:34;101511.84;;;17.79;47.65
55656;BME280;41530;52.382;5.270;2023-04-21T12:07:47;101502.44;;;17.75;47.40
55656;BME280;41530;52.382;5.270;2023-04-21T12:11:21;101588.00;;;18.30;47.58
55656;BME280;41530;52.382;5.270;2023-04-21T12:14:18;101495.47;;;17.84;47.36
55656;BME280;41530;52.382;5.270;2023-04-21T12:17:08;101528.25;;;18.04;47.23
55656;BME280;41530;52.382;5.270;2023-04-21T12:20:08;101518.31;;;18.06;47.31
55656;BME280;41530;52.382;5.270;2023-04-21T12:22:52;101457.75;;;17.79;47.63
55656;BME280;41530;52.382;5.270;2023-04-21T12:25:21;101515.38;;;18.19;47.62
55656;BME280;41530;52.382;5.270;2023-04-21T12:28:34;101543.84;;;18.37;47.68
55656;BME280;41530;52.382;5.270;2023-04-21T12:31:25;101505.25;;;18.12;47.57
55656;BME280;41530;52.382;5.270;2023-04-21T12:34:12;101476.97;;;18.02;47.89
55656;BME280;41530;52.382;5.270;2023-04-21T12:37:04;101479.78;;;18.10;47.81
55656;BME280;41530;52.382;5.270;2023-04-21T12:39:50;101529.66;;;18.46;47.75
55656;BME280;41530;52.382;5.270;2023-04-21T12:42:39;101494.78;;;18.21;48.06
55656;BME280;41530;52.382;5.270;2023-04-21T12:45:25;101541.88;;;18.49;48.37
55656;BME280;41530;52.382;5.270;2023-04-21T12:48:48;101491.84;;;18.24;48.24
55656;BME280;41530;52.382;5.270;2023-04-21T12:54:43;101446.41;;;18.06;48.11
55656;BME280;41530;52.382;5.270;2023-04-21T13:00:41;101441.94;;;18.06;48.26
55656;BME280;41530;52.382;5.270;2023-04-21T13:03:46;101432.97;;;18.07;47.77
55656;BME280;41530;52.382;5.270;2023-04-21T13:06:34;101430.84;;;18.11;47.61
55656;BME280;41530;52.382;5.270;2023-04-21T13:09:40;101431.69;;;18.11;47.88
55656;BME280;41530;52.382;5.270;2023-04-21T13:15:56;101422.31;;;18.17;47.59
55656;BME280;41530;52.382;5.270;2023-04-21T13:18:46;101416.00;;;18.18;47.44
55656;BME280;41530;52.382;5.270;2023-04-21T13:24:34;101457.75;;;18.46;47.47
55656;BME280;41530;52.382;5.270;2023-04-21T13:27:18;101450.59;;;18.47;47.15
55656;BME280;41530;52.382;5.270;2023-04-21T13:30:22;101425.94;;;18.35;47.60
55656;BME280;41530;52.382;5.270;2023-04-21T13:33:35;101404.19;;;18.30;48.20
55656;BME280;41530;52.382;5.270;2023-04-21T13:36:35;101437.81;;;18.50;47.50
55656;BME280;41530;52.382;5.270;2023-04-21T13:39:29;101394.94;;;18.25;48.04
55656;BME280;41530;52.382;5.270;2023-04-21T13:42:48;101453.91;;;18.68;47.99
55656;BME280;41530;52.382;5.270;2023-04-21T13:45:54;101355.59;;;18.19;47.92
55656;BME280;41530;52.382;5.270;2023-04-21T13:48:35;101390.72;;;18.41;47.42
55656;BME280;41530;52.382;5.270;2023-04-21T13:58:41;101330.22;;;18.24;47.55
55656;BME280;41530;52.382;5.270;2023-04-21T14:01:39;101401.88;;;18.74;47.96